Time;durP1;ratioP1;P1;durP2;ratioP2;P2;SDS_P1;SDS_P2;PMS_P1;PMS_P2;Temp;Humidity;BMP_temperature;BMP_pressure;BME280_temperature;BME280_humidity;BME280_pressure;Samples;Min_cycle;Max_cycle;Signal;HPM_P1;HPM_P2
2021/05/10 00:02:14;;;;;;;13.03;7.80;;;11.30;99.90;;;;;;5186645;28;20202;-73
2021/05/10 00:04:46;;;;;;;12.13;7.07;;;11.30;99.90;;;;;;5186939;28;20199;-73
2021/05/10 00:07:17;;;;;;;11.90;7.20;;;11.20;99.90;;;;;;5186940;28;20556;-72
2021/05/10 00:09:48;;;;;;;13.27;7.40;;;11.20;99.90;;;;;;5186525;28;20198;-71
2021/05/10 00:12:20;;;;;;;10.27;6.90;;;11.10;99.90;;;;;;5186566;28;20250;-73
2021/05/10 00:14:51;;;;;;;11.97;7.07;;;11.10;99.90;;;;;;5186619;28;20205;-71
2021/05/10 00:17:23;;;;;;;9.40;6.67;;;11.00;99.90;;;;;;5186813;28;20198;-71
2021/05/10 00:19:55;;;;;;;11.10;7.07;;;11.00;99.90;;;;;;5186367;28;20258;-72
2021/05/10 00:22:26;;;;;;;9.87;6.73;;;11.00;99.90;;;;;;5186737;28;20638;-71
2021/05/10 00:24:58;;;;;;;11.63;7.13;;;11.00;99.90;;;;;;5186361;28;20263;-72
2021/05/10 00:27:30;;;;;;;10.43;6.50;;;10.90;99.90;;;;;;5186668;28;20553;-71
2021/05/10 00:30:02;;;;;;;11.93;7.43;;;10.90;99.90;;;;;;5186588;28;20191;-71
2021/05/10 00:32:33;;;;;;;11.67;7.70;;;10.90;99.90;;;;;;5186617;28;20230;-72
2021/05/10 00:35:06;;;;;;;11.87;7.70;;;10.80;99.90;;;;;;5186540;28;20279;-72
2021/05/10 00:37:37;;;;;;;11.63;7.77;;;10.90;99.90;;;;;;5186105;28;20195;-72
2021/05/10 00:40:11;;;;;;;14.30;7.90;;;10.90;99.90;;;;;;5169176;28;20303;-72
2021/05/10 00:42:42;;;;;;;11.97;7.80;;;10.90;99.90;;;;;;5186474;28;20188;-71
2021/05/10 00:45:14;;;;;;;13.30;7.80;;;10.80;99.90;;;;;;5153071;28;20199;-72
2021/05/10 00:47:46;;;;;;;12.67;7.77;;;10.80;99.90;;;;;;5186205;28;20202;-72
2021/05/10 00:50:19;;;;;;;9.23;6.97;;;10.80;99.90;;;;;;5186229;28;20195;-72
2021/05/10 00:52:50;;;;;;;11.07;7.00;;;10.80;99.90;;;;;;5186394;28;20553;-72
2021/05/10 00:55:22;;;;;;;10.83;7.17;;;10.70;99.90;;;;;;5186048;28;20206;-71
2021/05/10 00:58:01;;;;;;;10.97;7.17;;;10.70;99.90;;;;;;5186993;28;20194;-72
2021/05/10 01:00:36;;;;;;;10.90;7.67;;;10.70;99.90;;;;;;5187145;28;20198;-73
2021/05/10 01:03:10;;;;;;;11.10;7.67;;;10.70;99.90;;;;;;5186253;28;20195;-72
2021/05/10 01:05:44;;;;;;;11.57;7.43;;;10.70;99.90;;;;;;5186075;28;20207;-72
2021/05/10 01:08:16;;;;;;;12.17;7.00;;;10.60;99.90;;;;;;5186035;28;20187;-71
2021/05/10 01:10:47;;;;;;;11.43;7.53;;;10.60;99.90;;;;;;5189874;28;20202;-72
2021/05/10 01:13:19;;;;;;;11.30;7.27;;;10.60;99.90;;;;;;5189659;28;20195;-72
2021/05/10 01:15:51;;;;;;;10.83;7.03;;;10.50;99.90;;;;;;5189589;28;20201;-72
2021/05/10 01:18:23;;;;;;;10.63;7.00;;;10.50;99.90;;;;;;5189770;28;20214;-72
2021/05/10 01:20:56;;;;;;;11.27;7.33;;;10.50;99.90;;;;;;5189447;28;20249;-71
2021/05/10 01:23:28;;;;;;;12.00;7.67;;;10.50;99.90;;;;;;5189909;28;20660;-71
2021/05/10 01:26:00;;;;;;;12.47;7.30;;;10.40;99.90;;;;;;5189719;28;20195;-72
2021/05/10 01:28:32;;;;;;;11.97;7.40;;;10.40;99.90;;;;;;5189378;28;20199;-72
2021/05/10 01:31:03;;;;;;;12.97;7.43;;;10.40;99.90;;;;;;5189597;28;20271;-73
2021/05/10 01:33:35;;;;;;;12.03;8.07;;;10.30;99.90;;;;;;5189637;28;20199;-72
2021/05/10 01:36:07;;;;;;;12.27;7.77;;;10.30;99.90;;;;;;5190109;28;20555;-71
2021/05/10 01:38:39;;;;;;;12.10;7.70;;;10.30;99.90;;;;;;5189123;28;20219;-71
2021/05/10 01:41:10;;;;;;;11.10;7.10;;;10.30;99.90;;;;;;5171954;28;20563;-72
2021/05/10 01:43:42;;;;;;;11.60;7.83;;;10.20;99.90;;;;;;5189298;28;20546;-72
2021/05/10 01:46:13;;;;;;;11.63;8.00;;;10.20;99.90;;;;;;5189005;28;20199;-72
2021/05/10 01:48:44;;;;;;;11.77;8.77;;;10.20;99.90;;;;;;5189218;28;20788;-73
2021/05/10 01:55:03;;;;;;;10.60;6.87;;;10.10;99.90;;;;;;5188939;28;20171;-72
2021/05/10 01:57:35;;;;;;;11.10;7.43;;;10.10;99.90;;;;;;5189035;28;20634;-72
2021/05/10 02:00:13;;;;;;;12.47;8.60;;;10.00;99.90;;;;;;5188591;28;20219;-73
2021/05/10 02:02:44;;;;;;;13.87;9.43;;;9.90;99.90;;;;;;5188723;28;20191;-72
2021/05/10 02:05:22;;;;;;;16.30;8.83;;;9.90;99.90;;;;;;5188886;28;20224;-72
2021/05/10 02:11:39;;;;;;;13.00;7.83;;;9.80;99.90;;;;;;5188450;28;20288;-73
2021/05/10 02:14:10;;;;;;;12.23;8.50;;;9.70;99.90;;;;;;5188734;28;20218;-72
2021/05/10 02:16:42;;;;;;;12.70;8.30;;;9.70;99.90;;;;;;5188765;28;20281;-71
2021/05/10 02:19:13;;;;;;;14.17;8.23;;;9.70;99.90;;;;;;5188370;28;20273;-72
2021/05/10 02:21:45;;;;;;;11.77;8.50;;;9.60;99.90;;;;;;5187775;28;20198;-74
2021/05/10 02:24:16;;;;;;;11.87;7.87;;;9.60;99.90;;;;;;5188647;28;20195;-72
2021/05/10 02:26:47;;;;;;;13.43;8.37;;;9.60;99.90;;;;;;5188605;28;20202;-72
2021/05/10 02:29:19;;;;;;;12.93;7.80;;;9.60;99.90;;;;;;5188508;28;20198;-72
2021/05/10 02:31:50;;;;;;;14.23;8.00;;;9.60;99.90;;;;;;5188416;28;20297;-73
2021/05/10 02:34:22;;;;;;;14.50;9.27;;;9.60;99.90;;;;;;5188127;28;20383;-72
2021/05/10 02:36:53;;;;;;;11.10;8.03;;;9.60;99.90;;;;;;5188016;28;20245;-71
2021/05/10 02:39:25;;;;;;;12.23;8.20;;;9.60;99.90;;;;;;5188253;28;20215;-72
2021/05/10 02:41:56;;;;;;;12.00;8.37;;;9.60;99.90;;;;;;5188487;28;20195;-73
2021/05/10 02:44:28;;;;;;;13.90;7.90;;;9.60;99.90;;;;;;5188591;28;20199;-72
2021/05/10 02:46:59;;;;;;;10.70;8.40;;;9.60;99.90;;;;;;5170926;28;20191;-73
2021/05/10 02:49:31;;;;;;;11.53;7.67;;;9.60;99.90;;;;;;5188187;28;20530;-71
2021/05/10 02:52:02;;;;;;;11.67;7.60;;;9.70;99.90;;;;;;5188171;28;20559;-72
2021/05/10 02:54:34;;;;;;;9.60;7.40;;;9.70;99.90;;;;;;5187927;28;20206;-72
2021/05/10 02:57:05;;;;;;;10.53;8.17;;;9.70;99.90;;;;;;5170693;28;20222;-72
2021/05/10 02:59:37;;;;;;;11.30;7.43;;;9.70;99.90;;;;;;5187881;28;20223;-71
2021/05/10 03:02:08;;;;;;;13.93;7.50;;;9.80;99.90;;;;;;5188468;28;20549;-72
2021/05/10 03:04:41;;;;;;;10.17;7.50;;;9.80;99.90;;;;;;5188196;28;20257;-72
2021/05/10 03:07:12;;;;;;;9.70;6.67;;;9.90;99.90;;;;;;5187799;28;20191;-72
2021/05/10 03:09:45;;;;;;;10.40;7.10;;;9.90;99.90;;;;;;5187744;28;20265;-71
2021/05/10 03:12:16;;;;;;;10.40;7.80;;;9.90;99.90;;;;;;5187579;28;20238;-72
2021/05/10 03:14:48;;;;;;;10.73;7.37;;;9.90;99.90;;;;;;5170437;28;20199;-71
2021/05/10 03:17:19;;;;;;;9.90;7.53;;;10.00;99.90;;;;;;5187638;28;20202;-71
2021/05/10 03:19:51;;;;;;;12.43;7.70;;;10.00;99.90;;;;;;5187408;28;20219;-72
2021/05/10 03:22:22;;;;;;;10.70;7.23;;;10.00;99.90;;;;;;5187092;28;20191;-72
2021/05/10 03:24:54;;;;;;;9.27;7.03;;;10.10;99.90;;;;;;5187586;28;20685;-71
2021/05/10 03:27:26;;;;;;;9.50;6.90;;;10.10;99.90;;;;;;5187382;28;20532;-72
2021/05/10 03:29:57;;;;;;;11.83;7.67;;;10.10;99.90;;;;;;5187398;28;20195;-72
2021/05/10 03:32:29;;;;;;;10.53;6.90;;;10.10;99.90;;;;;;5186240;28;20195;-72
2021/05/10 03:35:03;;;;;;;11.33;7.10;;;10.20;99.90;;;;;;5187204;28;20191;-72
2021/05/10 03:37:34;;;;;;;9.80;6.83;;;10.20;99.90;;;;;;5187339;28;20261;-71
2021/05/10 03:40:09;;;;;;;10.40;7.53;;;10.20;99.90;;;;;;5169420;28;20222;-71
2021/05/10 03:42:41;;;;;;;11.50;7.40;;;10.20;99.90;;;;;;5169396;28;20199;-71
2021/05/10 03:45:13;;;;;;;10.60;7.43;;;10.30;99.90;;;;;;5186954;28;20205;-69
2021/05/10 03:47:45;;;;;;;9.70;7.20;;;10.30;99.90;;;;;;5186975;28;20618;-70
2021/05/10 03:50:18;;;;;;;9.23;6.83;;;10.30;99.90;;;;;;5187057;28;20601;-72
2021/05/10 03:52:51;;;;;;;10.07;7.37;;;10.40;99.90;;;;;;5169388;28;20199;-71
2021/05/10 03:55:23;;;;;;;10.90;7.57;;;10.40;99.90;;;;;;5186989;28;20191;-72
2021/05/10 03:57:56;;;;;;;12.90;8.20;;;10.50;99.90;;;;;;5186619;28;20236;-70
2021/05/10 04:00:27;;;;;;;11.77;7.43;;;10.60;99.90;;;;;;5186865;28;20223;-71
2021/05/10 04:03:00;;;;;;;11.50;7.50;;;10.60;99.90;;;;;;5186824;28;20209;-71
2021/05/10 04:13:34;;;;;;;11.80;7.33;;;10.90;99.90;;;;;;5084321;29;20763;-71
2021/05/10 04:14:16;;;;;;;14.57;8.13;;;10.90;99.90;;;;;;5084171;29;20199;-71
2021/05/10 04:16:47;;;;;;;12.40;7.43;;;11.00;99.90;;;;;;5084769;29;20571;-72
2021/05/10 04:19:19;;;;;;;13.53;7.73;;;11.20;99.90;;;;;;5084467;29;20243;-70
2021/05/10 04:25:36;;;;;;;10.20;7.30;;;11.30;99.90;;;;;;5084615;29;20190;-72
2021/05/10 04:28:07;;;;;;;10.20;7.40;;;11.40;99.90;;;;;;5084389;29;20206;-71
2021/05/10 04:30:39;;;;;;;11.27;7.53;;;11.50;99.90;;;;;;5084491;29;20203;-72
2021/05/10 04:33:11;;;;;;;9.43;7.50;;;11.50;99.90;;;;;;5084384;29;20334;-71
2021/05/10 04:35:42;;;;;;;12.10;7.13;;;11.60;99.90;;;;;;5084504;29;20206;-71
2021/05/10 04:41:58;;;;;;;11.60;7.03;;;11.80;99.90;;;;;;5084408;29;20236;-71
2021/05/10 04:44:30;;;;;;;11.37;7.33;;;11.90;99.90;;;;;;5086463;29;20214;-72
2021/05/10 04:47:01;;;;;;;13.73;7.70;;;11.90;99.90;;;;;;5077400;28;20606;-70
2021/05/10 04:49:33;;;;;;;10.43;6.70;;;12.00;99.90;;;;;;5172820;28;20266;-72
2021/05/10 04:52:04;;;;;;;12.97;7.00;;;12.00;99.90;;;;;;5172911;28;20218;-71
2021/05/10 04:54:36;;;;;;;10.97;7.27;;;12.00;99.90;;;;;;5190223;28;20558;-71
2021/05/10 04:57:07;;;;;;;11.13;7.13;;;12.00;99.90;;;;;;5190315;28;20631;-71
2021/05/10 04:59:38;;;;;;;11.03;7.17;;;12.10;99.90;;;;;;5190531;28;20223;-70
2021/05/10 05:02:10;;;;;;;12.57;7.47;;;12.10;99.90;;;;;;5190621;28;20267;-71
2021/05/10 05:04:41;;;;;;;11.20;7.03;;;12.10;99.90;;;;;;5190091;28;20202;-70
2021/05/10 05:07:12;;;;;;;10.93;7.13;;;12.20;99.90;;;;;;5190104;28;20194;-71
2021/05/10 05:09:44;;;;;;;14.07;7.57;;;12.20;99.90;;;;;;5189677;28;20210;-70
2021/05/10 05:12:15;;;;;;;10.17;6.90;;;12.30;99.90;;;;;;5189502;28;20230;-71
2021/05/10 05:14:47;;;;;;;11.17;7.83;;;12.40;99.90;;;;;;5190013;28;20199;-71
2021/05/10 05:17:18;;;;;;;10.73;7.50;;;12.40;99.90;;;;;;5189552;28;20201;-71
2021/05/10 05:19:49;;;;;;;10.33;7.53;;;12.50;99.90;;;;;;5189422;28;20223;-72
2021/05/10 05:22:21;;;;;;;13.50;7.97;;;12.60;99.90;;;;;;5189396;28;20198;-73
2021/05/10 05:24:56;;;;;;;10.47;7.00;;;12.60;99.90;;;;;;5189830;28;20195;-73
2021/05/10 05:27:28;;;;;;;11.87;7.43;;;12.70;99.90;;;;;;5189588;28;20198;-72
2021/05/10 05:29:59;;;;;;;14.37;7.60;;;12.70;99.90;;;;;;5189243;28;20202;-73
2021/05/10 05:32:31;;;;;;;12.80;7.60;;;12.80;99.90;;;;;;5189479;28;20535;-66
2021/05/10 05:35:05;;;;;;;10.30;7.37;;;12.80;99.90;;;;;;5189707;28;20199;-66
2021/05/10 05:37:36;;;;;;;12.53;7.03;;;12.90;99.90;;;;;;5188737;28;20191;-67
2021/05/10 05:40:08;;;;;;;11.90;7.47;;;13.00;99.90;;;;;;5188992;28;20219;-68
2021/05/10 05:42:40;;;;;;;14.23;7.80;;;13.10;99.90;;;;;;5189036;28;20634;-67
2021/05/10 05:45:13;;;;;;;10.90;7.77;;;13.20;99.90;;;;;;5189060;28;20195;-65
2021/05/10 05:47:44;;;;;;;11.20;6.77;;;13.30;99.90;;;;;;5189191;28;20199;-68
2021/05/10 05:50:16;;;;;;;10.97;7.10;;;13.30;99.90;;;;;;5189077;28;20191;-68
2021/05/10 05:52:47;;;;;;;8.47;6.07;;;13.40;99.90;;;;;;5189107;28;20191;-65
2021/05/10 05:55:19;;;;;;;13.43;7.43;;;13.50;99.90;;;;;;5187679;28;20191;-70
2021/05/10 05:57:50;;;;;;;10.00;7.07;;;13.60;99.90;;;;;;5186954;28;20540;-67
2021/05/10 06:00:22;;;;;;;10.13;7.00;;;13.60;99.90;;;;;;5187346;28;20218;-67
2021/05/10 06:02:53;;;;;;;10.57;6.07;;;13.90;99.90;;;;;;5188007;28;20195;-66
2021/05/10 06:05:25;;;;;;;13.33;6.33;;;14.90;99.90;;;;;;5187921;28;20195;-66
2021/05/10 06:07:56;;;;;;;8.88;5.68;;;16.90;99.90;;;;;;5186647;28;20187;-68
2021/05/10 06:10:28;;;;;;;10.80;5.85;;;19.20;99.90;;;;;;5187563;28;20214;-70
2021/05/10 06:12:59;;;;;;;10.73;5.85;;;21.60;99.90;;;;;;5187134;28;20241;-65
2021/05/10 06:15:31;;;;;;;14.27;5.72;;;23.50;99.90;;;;;;5186891;28;20195;-69
2021/05/10 06:18:03;;;;;;;10.73;5.35;;;24.90;99.90;;;;;;5187097;28;20665;-67
2021/05/10 06:20:34;;;;;;;7.35;4.85;;;26.00;96.70;;;;;;5186206;28;20230;-63
2021/05/10 06:23:06;;;;;;;8.80;5.25;;;27.20;93.50;;;;;;5187237;28;20191;-66
2021/05/10 06:25:37;;;;;;;8.15;4.57;;;28.00;90.20;;;;;;5187620;28;20576;-66
2021/05/10 06:28:09;;;;;;;8.63;5.57;;;28.80;85.20;;;;;;5187173;28;20205;-66
2021/05/10 06:30:40;;;;;;;13.73;5.30;;;29.50;80.40;;;;;;5186180;28;20191;-67
2021/05/10 06:33:12;;;;;;;9.40;5.07;;;29.70;77.60;;;;;;5187703;28;20253;-64
2021/05/10 06:35:43;;;;;;;8.18;5.07;;;30.00;75.70;;;;;;5182738;28;20199;-66
2021/05/10 06:38:14;;;;;;;6.53;5.22;;;30.40;72.30;;;;;;5184026;28;20219;-66
2021/05/10 06:40:46;;;;;;;7.47;5.00;;;30.60;70.80;;;;;;5185522;28;20195;-63
2021/05/10 06:43:18;;;;;;;8.45;5.55;;;31.20;70.40;;;;;;5185217;28;20195;-64
2021/05/10 06:45:49;;;;;;;7.25;5.05;;;31.70;67.80;;;;;;5186847;28;20202;-67
2021/05/10 06:48:32;;;;;;;6.35;4.45;;;32.00;65.20;;;;;;5186463;28;20195;-62
2021/05/10 06:51:03;;;;;;;8.90;5.07;;;32.10;62.80;;;;;;5182225;28;20218;-68
2021/05/10 06:53:35;;;;;;;8.10;5.05;;;31.90;62.20;;;;;;5183324;28;20199;-64
2021/05/10 06:56:06;;;;;;;7.53;4.47;;;31.60;63.40;;;;;;5186499;28;20191;-64
2021/05/10 06:58:38;;;;;;;11.20;4.97;;;31.30;63.30;;;;;;5179045;28;20593;-64
2021/05/10 07:01:09;;;;;;;9.82;5.05;;;31.20;61.90;;;;;;5185077;28;20290;-64
2021/05/10 07:03:41;;;;;;;7.30;4.97;;;31.00;62.80;;;;;;5168102;28;20202;-63
2021/05/10 07:06:12;;;;;;;8.50;5.03;;;30.70;60.80;;;;;;5178776;28;20203;-64
2021/05/10 07:08:43;;;;;;;10.77;5.32;;;30.40;61.40;;;;;;5183576;28;20206;-62
2021/05/10 07:11:15;;;;;;;7.70;4.68;;;29.90;62.50;;;;;;5186233;28;20254;-62
2021/05/10 07:13:46;;;;;;;9.70;5.60;;;30.30;62.60;;;;;;5183987;28;20634;-64
2021/05/10 07:16:17;;;;;;;6.90;4.25;;;30.20;62.30;;;;;;5181151;28;20650;-63
2021/05/10 07:18:49;;;;;;;6.03;4.40;;;30.10;62.40;;;;;;5183685;28;20191;-64
2021/05/10 07:21:24;;;;;;;7.47;4.60;;;30.10;61.30;;;;;;5183373;28;20199;-63
2021/05/10 07:23:56;;;;;;;8.60;4.85;;;30.00;61.00;;;;;;5184967;28;20214;-63
2021/05/10 07:26:27;;;;;;;8.75;5.15;;;29.90;61.20;;;;;;5186063;28;20222;-66
2021/05/10 07:29:00;;;;;;;8.20;4.97;;;29.10;60.60;;;;;;5185633;28;20195;-65
2021/05/10 07:31:32;;;;;;;11.18;5.30;;;28.10;62.50;;;;;;5184241;28;20202;-64
2021/05/10 07:34:04;;;;;;;7.93;5.25;;;27.30;64.70;;;;;;5185863;28;20666;-64
2021/05/10 07:36:39;;;;;;;8.77;4.88;;;26.90;66.10;;;;;;5186211;28;20248;-65
2021/05/10 07:39:10;;;;;;;9.20;4.90;;;26.40;66.10;;;;;;5186254;28;20191;-62
2021/05/10 07:41:42;;;;;;;8.65;4.88;;;25.70;65.80;;;;;;5186008;28;20267;-65
2021/05/10 07:44:13;;;;;;;9.20;5.43;;;25.30;67.40;;;;;;5185793;28;20199;-64
2021/05/10 07:46:45;;;;;;;9.98;5.60;;;24.60;69.50;;;;;;5185924;28;20195;-62
2021/05/10 07:49:16;;;;;;;10.32;5.47;;;24.40;69.20;;;;;;5186111;28;20573;-61
2021/05/10 07:51:48;;;;;;;11.38;5.70;;;24.00;69.00;;;;;;5183985;28;20424;-62
2021/05/10 07:54:20;;;;;;;12.85;6.20;;;23.70;71.00;;;;;;5183924;28;20484;-62
2021/05/10 07:56:51;;;;;;;11.15;5.80;;;23.40;71.20;;;;;;5183425;28;20203;-62
2021/05/10 07:59:23;;;;;;;8.98;4.80;;;23.10;72.80;;;;;;5185574;28;20644;-62
2021/05/10 08:01:57;;;;;;;9.65;5.35;;;23.00;73.20;;;;;;5181059;28;20668;-61
2021/05/10 08:04:28;;;;;;;12.55;5.03;;;22.90;72.70;;;;;;5185684;28;20198;-61
2021/05/10 08:07:00;;;;;;;11.10;5.30;;;22.90;75.30;;;;;;5185147;28;20194;-62
2021/05/10 08:09:32;;;;;;;11.85;5.53;;;22.90;73.80;;;;;;5185634;28;20226;-61
2021/05/10 08:12:04;;;;;;;12.48;5.30;;;23.00;74.00;;;;;;5185122;28;20234;-61
2021/05/10 08:14:36;;;;;;;13.10;5.95;;;23.00;73.60;;;;;;5184444;28;20199;-59
2021/05/10 08:17:08;;;;;;;10.00;5.20;;;23.00;73.90;;;;;;5185273;28;20191;-66
2021/05/10 08:19:40;;;;;;;10.90;5.80;;;23.10;73.20;;;;;;5184530;28;20713;-61
2021/05/10 08:22:11;;;;;;;10.55;5.45;;;22.90;71.70;;;;;;5185280;28;20191;-61
2021/05/10 08:24:43;;;;;;;9.05;5.07;;;22.80;71.70;;;;;;5185390;28;20578;-61
2021/05/10 08:27:14;;;;;;;12.52;5.45;;;22.90;73.80;;;;;;5185370;28;20210;-60
2021/05/10 08:29:46;;;;;;;9.73;5.28;;;22.80;71.80;;;;;;5185047;28;20222;-63
2021/05/10 08:32:18;;;;;;;11.43;5.22;;;23.00;73.40;;;;;;5185528;28;20630;-62
2021/05/10 08:34:49;;;;;;;11.85;5.40;;;23.10;73.00;;;;;;5185002;28;20202;-61
2021/05/10 08:37:21;;;;;;;13.32;4.78;;;23.00;70.30;;;;;;5185295;28;20198;-61
2021/05/10 08:39:52;;;;;;;10.85;5.55;;;23.00;70.60;;;;;;5185083;28;20241;-62
2021/05/10 08:42:24;;;;;;;13.20;5.10;;;23.00;70.90;;;;;;5184798;28;20195;-63
2021/05/10 08:44:55;;;;;;;9.45;4.55;;;23.00;70.70;;;;;;5184738;28;20201;-62
2021/05/10 08:47:35;;;;;;;7.97;4.68;;;23.20;71.20;;;;;;5185182;28;20198;-64
2021/05/10 08:50:09;;;;;;;10.98;4.93;;;23.20;69.90;;;;;;5185230;28;20229;-65
2021/05/10 08:52:42;;;;;;;18.80;5.30;;;23.10;67.90;;;;;;5185240;28;20195;-66
2021/05/10 08:55:15;;;;;;;11.77;4.38;;;23.00;68.00;;;;;;5184919;28;20202;-61
2021/05/10 08:57:47;;;;;;;10.82;4.03;;;22.90;67.70;;;;;;5167503;28;20199;-61
2021/05/10 09:00:22;;;;;;;9.13;4.32;;;22.80;67.10;;;;;;5185065;28;20199;-63
2021/05/10 09:03:11;;;;;;;12.38;4.55;;;22.80;68.40;;;;;;5184438;28;20608;-62
2021/05/10 09:05:49;;;;;;;8.55;4.35;;;22.80;68.60;;;;;;5183318;28;20195;-63
2021/05/10 09:08:20;;;;;;;10.95;4.32;;;22.80;69.30;;;;;;5167606;28;20191;-65
2021/05/10 09:11:05;;;;;;;8.35;4.40;;;22.70;69.20;;;;;;5184967;28;20312;-61
2021/05/10 09:13:43;;;;;;;12.45;3.85;;;22.70;69.60;;;;;;5167641;28;20684;-61
2021/05/10 09:16:15;;;;;;;9.00;3.88;;;22.80;70.10;;;;;;5184640;28;20199;-62
2021/05/10 09:18:52;;;;;;;7.28;3.60;;;22.90;70.10;;;;;;5184521;28;20206;-60
2021/05/10 09:21:28;;;;;;;9.30;3.35;;;22.80;68.90;;;;;;5185173;28;20218;-61
2021/05/10 09:28:16;;;;;;;10.00;3.53;;;22.70;70.90;;;;;;5184643;28;20210;-65
2021/05/10 09:30:51;;;;;;;6.93;3.25;;;22.90;70.10;;;;;;5185864;28;20696;-63
2021/05/10 09:33:25;;;;;;;12.05;3.55;;;23.00;69.80;;;;;;5187744;28;20195;-63
2021/05/10 09:36:02;;;;;;;12.60;3.60;;;23.00;71.50;;;;;;5187696;28;20197;-65
2021/05/10 09:38:36;;;;;;;9.68;3.05;;;23.20;70.90;;;;;;5187881;28;20195;-63
2021/05/10 09:44:58;;;;;;;7.45;3.05;;;23.30;70.40;;;;;;5187979;28;20170;-62
2021/05/10 09:47:33;;;;;;;6.85;2.53;;;23.40;69.10;;;;;;5187730;28;20199;-63
2021/05/10 09:50:05;;;;;;;5.10;2.60;;;23.40;68.80;;;;;;5187665;28;20218;-63
2021/05/10 09:52:36;;;;;;;5.65;2.58;;;23.60;69.90;;;;;;5187479;28;20191;-62
2021/05/10 09:55:08;;;;;;;10.80;3.15;;;23.60;68.10;;;;;;5187336;28;20608;-63
2021/05/10 09:57:55;;;;;;;9.88;2.55;;;23.60;68.60;;;;;;5187552;28;20270;-58
2021/05/10 10:00:26;;;;;;;7.25;2.42;;;23.50;68.00;;;;;;5187769;28;20199;-67
2021/05/10 10:03:01;;;;;;;6.68;2.40;;;23.50;67.80;;;;;;5187660;28;20191;-62
2021/05/10 10:05:33;;;;;;;3.65;2.20;;;23.50;67.20;;;;;;5187293;28;20602;-63
2021/05/10 10:08:05;;;;;;;5.20;2.50;;;23.40;66.90;;;;;;5187305;28;20207;-60
2021/05/10 10:10:37;;;;;;;5.18;2.30;;;23.40;67.20;;;;;;5169937;28;20406;-63
2021/05/10 10:13:08;;;;;;;4.00;2.33;;;23.40;66.50;;;;;;5187314;28;20246;-60
2021/05/10 10:15:39;;;;;;;4.13;2.25;;;23.40;66.70;;;;;;5187453;28;20199;-61
2021/05/10 10:18:11;;;;;;;8.02;2.40;;;23.40;67.80;;;;;;5187609;28;20218;-62
2021/05/10 10:20:44;;;;;;;8.75;2.42;;;23.40;67.00;;;;;;5187453;28;20199;-62
2021/05/10 10:23:22;;;;;;;5.60;2.10;;;23.30;66.20;;;;;;5187531;28;20550;-63
2021/05/10 10:25:55;;;;;;;5.68;2.17;;;23.20;66.90;;;;;;5187211;28;20641;-65
2021/05/10 10:28:28;;;;;;;8.07;2.10;;;23.20;67.00;;;;;;5187241;28;20202;-61
2021/05/10 10:31:04;;;;;;;7.82;2.28;;;23.30;68.60;;;;;;5184504;28;20306;-61
2021/05/10 10:33:38;;;;;;;5.38;2.10;;;23.30;67.80;;;;;;5187110;28;20211;-63
2021/05/10 10:36:30;;;;;;;3.53;1.90;;;23.40;68.40;;;;;;5187176;28;20201;-60
2021/05/10 10:43:20;;;;;;;5.57;2.10;;;23.60;66.80;;;;;;5186757;28;20552;-62
2021/05/10 10:46:20;;;;;;;4.47;2.10;;;23.60;66.40;;;;;;5187121;28;20187;-64
2021/05/10 10:48:55;;;;;;;3.83;2.22;;;23.70;68.10;;;;;;5187340;28;20195;-61
2021/05/10 10:51:48;;;;;;;7.82;2.40;;;23.70;67.40;;;;;;5186674;28;20214;-60
2021/05/10 10:54:22;;;;;;;5.90;2.58;;;23.60;67.00;;;;;;5186938;28;20206;-59
2021/05/10 10:56:59;;;;;;;4.93;2.40;;;23.60;68.30;;;;;;5186429;28;20246;-63
2021/05/10 10:59:35;;;;;;;4.65;1.95;;;23.60;68.50;;;;;;5187327;28;20201;-61
2021/05/10 11:02:19;;;;;;;7.95;2.05;;;23.50;66.60;;;;;;5186818;28;20194;-61
2021/05/10 11:05:08;;;;;;;6.53;1.65;;;23.50;68.50;;;;;;5186733;28;20199;-64
2021/05/10 11:08:26;;;;;;;5.35;1.98;;;23.60;67.40;;;;;;5184651;28;20641;-60
2021/05/10 11:10:59;;;;;;;4.80;1.65;;;23.60;66.60;;;;;;5176733;23;20226;-63
2021/05/10 11:13:36;;;;;;;9.82;1.95;;;23.60;66.40;;;;;;5178104;28;20212;-62
2021/05/10 11:16:14;;;;;;;2.83;1.70;;;23.60;66.70;;;;;;5186473;28;20253;-63
2021/05/10 11:18:53;;;;;;;4.50;1.80;;;23.50;66.90;;;;;;5186699;28;20195;-61
2021/05/10 11:21:26;;;;;;;3.83;1.50;;;23.60;67.30;;;;;;5186606;28;20205;-58
2021/05/10 11:24:00;;;;;;;6.35;1.95;;;23.60;67.10;;;;;;5186336;28;20206;-65
2021/05/10 11:26:34;;;;;;;9.02;1.92;;;23.70;66.90;;;;;;5184838;28;20217;-64
2021/05/10 11:29:08;;;;;;;4.85;1.42;;;23.60;66.30;;;;;;5186509;28;20198;-61
2021/05/10 11:31:42;;;;;;;6.95;1.88;;;23.60;67.20;;;;;;5186431;28;20195;-61
2021/05/10 11:34:17;;;;;;;10.23;1.77;;;23.60;67.20;;;;;;5186289;28;20198;-61
2021/05/10 11:36:54;;;;;;;4.95;1.70;;;23.50;67.20;;;;;;5194648;28;20213;-61
2021/05/10 11:39:31;;;;;;;6.13;1.90;;;23.60;67.40;;;;;;5206870;28;20194;-65
2021/05/10 11:42:04;;;;;;;5.75;1.52;;;23.60;67.40;;;;;;5206427;28;20209;-64
2021/05/10 11:44:40;;;;;;;5.63;1.88;;;23.70;67.80;;;;;;5206538;28;20202;-60
2021/05/10 11:47:27;;;;;;;4.95;1.50;;;23.70;67.40;;;;;;5205421;28;20195;-61
2021/05/10 11:50:02;;;;;;;6.93;1.85;;;23.70;67.70;;;;;;5199215;28;20228;-62
2021/05/10 11:52:34;;;;;;;7.47;1.98;;;23.70;67.10;;;;;;5181653;28;20217;-59
2021/05/10 11:55:07;;;;;;;7.10;1.65;;;23.80;68.10;;;;;;5185022;28;20216;-61
2021/05/10 11:57:42;;;;;;;8.48;1.80;;;23.80;67.10;;;;;;5184118;28;20427;-61
2021/05/10 12:00:14;;;;;;;5.50;1.80;;;24.00;66.80;;;;;;5186273;28;20191;-57
2021/05/10 12:02:47;;;;;;;6.80;1.50;;;23.90;66.10;;;;;;5185582;28;20195;-61
2021/05/10 12:05:19;;;;;;;5.28;1.40;;;24.00;66.00;;;;;;5185752;28;20708;-63
2021/05/10 12:07:50;;;;;;;8.55;1.80;;;24.00;65.70;;;;;;5185458;28;20199;-62
2021/05/10 12:10:22;;;;;;;4.57;1.95;;;23.90;66.50;;;;;;5185276;28;20697;-66
2021/05/10 12:12:53;;;;;;;5.88;1.58;;;23.90;67.00;;;;;;5185938;28;20222;-60
2021/05/10 12:15:27;;;;;;;5.28;1.63;;;24.00;67.10;;;;;;5184269;28;20199;-64
2021/05/10 12:18:01;;;;;;;7.03;1.20;;;24.10;66.70;;;;;;5185697;28;20194;-57
2021/05/10 12:20:33;;;;;;;10.20;1.77;;;24.20;66.30;;;;;;5186076;28;20222;-62
2021/05/10 12:23:05;;;;;;;4.70;1.70;;;24.20;66.50;;;;;;5185443;28;20195;-61
2021/05/10 12:25:38;;;;;;;12.57;1.95;;;24.30;66.70;;;;;;5185465;28;20535;-61
2021/05/10 12:28:16;;;;;;;6.60;1.63;;;24.40;66.10;;;;;;5185522;28;20285;-63
2021/05/10 12:30:49;;;;;;;8.30;1.73;;;24.50;66.80;;;;;;5185427;28;20246;-60
2021/05/10 12:33:24;;;;;;;6.97;1.88;;;24.60;66.60;;;;;;5185040;28;20202;-60
2021/05/10 12:36:05;;;;;;;9.48;2.00;;;24.70;65.50;;;;;;5185561;28;20202;-62
2021/05/10 12:38:39;;;;;;;7.00;1.52;;;24.70;66.00;;;;;;5178190;28;20209;-61
2021/05/10 12:41:25;;;;;;;6.40;1.60;;;24.70;66.00;;;;;;5166806;28;20214;-61
2021/05/10 12:43:57;;;;;;;7.18;1.42;;;24.80;66.20;;;;;;5183800;28;20210;-64
2021/05/10 12:46:42;;;;;;;9.27;2.85;;;24.80;65.80;;;;;;5185109;28;20191;-63
2021/05/10 12:49:23;;;;;;;9.95;3.20;;;24.80;66.60;;;;;;5177942;28;20330;-64
2021/05/10 12:51:55;;;;;;;6.30;2.38;;;24.90;66.00;;;;;;5172292;28;20226;-68
2021/05/10 12:54:39;;;;;;;5.82;2.55;;;24.80;65.90;;;;;;5182547;28;20201;-65
2021/05/10 12:57:27;;;;;;;10.18;3.58;;;24.90;67.20;;;;;;5184206;28;20214;-66
2021/05/10 12:59:59;;;;;;;5.10;2.45;;;25.00;67.30;;;;;;5184570;28;20187;-59
2021/05/10 13:02:36;;;;;;;6.15;2.58;;;25.00;66.70;;;;;;5184785;28;20195;-68
2021/05/10 13:05:09;;;;;;;5.18;2.60;;;25.10;66.90;;;;;;5185960;28;20222;-66
2021/05/10 13:07:47;;;;;;;4.85;2.28;;;25.10;66.40;;;;;;5188640;28;20199;-65
2021/05/10 13:10:20;;;;;;;8.07;2.17;;;25.00;66.10;;;;;;5188601;28;20645;-62
2021/05/10 13:12:53;;;;;;;9.90;2.25;;;25.00;66.60;;;;;;5189128;28;20203;-61
2021/05/10 13:15:31;;;;;;;9.95;2.45;;;25.10;66.40;;;;;;5188327;28;20198;-66
2021/05/10 13:31:52;;;;;;;9.05;1.55;;;25.70;66.60;;;;;;5188579;28;20238;-68
2021/05/10 13:35:18;;;;;;;6.25;1.55;;;25.70;66.40;;;;;;5188558;28;20191;-68
2021/05/10 13:37:34;;;;;;;8.95;1.48;;;25.50;68.20;;;;;;5188046;28;20207;-69
2021/05/10 13:40:06;;;;;;;11.55;2.00;;;25.30;69.30;;;;;;5188312;28;20199;-71
2021/05/10 13:42:40;;;;;;;8.45;1.92;;;25.30;70.00;;;;;;5188076;28;20198;-71
2021/05/10 13:45:12;;;;;;;6.72;1.70;;;25.10;69.80;;;;;;5188697;28;20249;-69
2021/05/10 13:47:44;;;;;;;8.55;1.73;;;25.00;69.80;;;;;;5188198;28;20203;-66
2021/05/10 13:50:15;;;;;;;5.20;1.73;;;24.90;68.50;;;;;;5188518;28;20222;-63
2021/05/10 13:52:47;;;;;;;6.95;1.50;;;24.90;68.00;;;;;;5188452;28;20657;-69
2021/05/10 13:55:18;;;;;;;8.77;1.67;;;25.00;68.30;;;;;;5188326;28;20191;-71
2021/05/10 13:58:05;;;;;;;;;;;;;;;;;;;;;
2021/05/10 14:00:45;;;;;;;8.98;2.45;;;25.10;68.90;;;;;;5185365;28;20286;-64
2021/05/10 14:03:17;;;;;;;6.00;1.50;;;25.20;68.70;;;;;;5189071;28;20194;-71